Primera, Texas
Current Conditions -  °F | °C
As of 6:52 AM on Thursday 18 Dec 2014 (Local Time) from KHRL Reporting Station
Overcast Overcast  
Wind Chill: 71°   Ceiling: 6000
Heat Index: 71°   Visibility: 9mi
Dew Point: 68°   Wind: 8mph
Humidity: 90%   Direction: 160°SSE
Pressure: 30.01"   Gusts: NA
Location:  26.2089°N, 97.6849°W
Report Text: KHRL 181252Z 16007KT 9SM OVC060 22/20 A3001 RMK AO2 SLP161 T02170200
Loading
Personal Weather Stations






























Interactive Weather Map New forecast layout! Learn more

10-Day Weather Forecast

Advertisements
Track Severe Weather on mobile